createdAt,value
2019-06-07T00:02:28.548Z,-166
2019-06-07T00:02:28.597Z,-166
2019-06-07T00:07:28.768Z,-165
2019-06-07T00:08:07.303Z,-166
2019-06-07T00:08:29.452Z,-167
2019-06-07T00:08:59.182Z,-167
2019-06-07T00:09:29.129Z,-166
2019-06-07T00:09:29.168Z,-166
2019-06-07T00:09:59.496Z,-167
2019-06-07T00:10:36.347Z,-167
2019-06-07T00:10:59.538Z,-167
2019-06-07T00:11:29.574Z,-166
2019-06-07T00:11:59.119Z,-166
2019-06-07T00:12:29.232Z,-165
2019-06-07T00:12:59.102Z,-167
2019-06-07T00:13:29.485Z,-167
2019-06-07T00:13:59.278Z,-168
2019-06-07T00:14:29.909Z,-165
2019-06-07T00:14:59.440Z,-165
2019-06-07T00:15:29.503Z,-165
2019-06-07T00:15:59.445Z,-164
2019-06-07T00:16:29.448Z,-167
2019-06-07T00:16:59.913Z,-163
2019-06-07T00:17:29.684Z,-165
2019-06-07T00:18:00.226Z,-163
2019-06-07T00:18:29.798Z,-164
2019-06-07T00:18:59.619Z,-164
2019-06-07T00:19:29.686Z,-163
2019-06-07T00:19:59.670Z,-165
2019-06-07T00:20:29.903Z,-164
2019-06-07T00:20:59.827Z,-164
2019-06-07T00:22:12.617Z,-164
2019-06-07T00:22:16.380Z,-164
2019-06-07T00:22:33.236Z,-164
2019-06-07T00:22:59.738Z,-165
2019-06-07T00:23:29.858Z,-165
2019-06-07T00:23:59.760Z,-165
2019-06-07T00:24:29.735Z,-166
2019-06-07T00:25:00.038Z,-165
2019-06-07T00:25:30.011Z,-165
2019-06-07T00:26:00.178Z,-165
2019-06-07T00:26:30.267Z,-165
2019-06-07T00:27:00.445Z,-163
2019-06-07T00:27:30.566Z,-163
2019-06-07T00:28:00.673Z,-164
2019-06-07T00:28:30.157Z,-163
2019-06-07T00:28:30.205Z,-163
2019-06-07T00:29:00.208Z,-163
2019-06-07T00:29:30.123Z,-163
2019-06-07T00:29:30.151Z,-163
2019-06-07T00:30:00.204Z,-163
2019-06-07T00:30:42.045Z,-164
2019-06-07T00:31:00.558Z,-162
2019-06-07T00:31:30.750Z,-162
2019-06-07T00:31:30.789Z,-164
2019-06-07T00:32:00.634Z,-164
2019-06-07T00:32:30.439Z,-162
2019-06-07T00:32:30.640Z,-162
2019-06-07T00:33:00.605Z,-166
2019-06-07T00:33:31.062Z,-166
2019-06-07T00:33:31.064Z,-166
2019-06-07T00:34:31.182Z,-164
2019-06-07T00:34:31.183Z,-164
2019-06-07T00:36:30.707Z,-165
2019-06-07T00:36:30.720Z,-165
2019-06-07T00:37:31.280Z,-163
2019-06-07T00:37:31.464Z,-163
2019-06-07T00:38:30.872Z,-165
2019-06-07T00:38:30.882Z,-165
2019-06-07T00:39:31.033Z,-166
2019-06-07T00:39:31.056Z,-166
2019-06-07T00:46:31.951Z,-160
2019-06-07T00:46:31.996Z,-159
2019-06-07T00:47:31.697Z,-159
2019-06-07T00:47:31.699Z,-159
2019-06-07T00:54:31.778Z,-160
2019-06-07T00:54:31.852Z,-160
2019-06-07T00:56:32.156Z,-159
2019-06-07T00:56:32.162Z,-159
2019-06-07T00:57:01.936Z,-159
2019-06-07T00:57:32.369Z,-159
2019-06-07T00:57:32.372Z,-159
2019-06-07T00:58:32.058Z,-160
2019-06-07T00:58:32.086Z,-160
2019-06-07T00:59:11.021Z,-160
2019-06-07T00:59:32.105Z,-158
2019-06-07T00:59:32.147Z,-158
2019-06-07T01:00:32.333Z,-160
2019-06-07T01:01:02.363Z,-161
2019-06-07T01:02:02.245Z,-161
2019-06-07T01:02:32.394Z,-159
2019-06-07T01:03:02.341Z,-159
2019-06-07T01:03:32.637Z,-160
2019-06-07T01:04:02.299Z,-158
2019-06-07T01:04:32.439Z,-158
2019-06-07T01:05:02.522Z,-160
2019-06-07T01:05:32.535Z,-159
2019-06-07T01:06:02.234Z,-158
2019-06-07T01:06:32.253Z,-158
2019-06-07T01:07:02.546Z,-160
2019-06-07T01:07:32.770Z,-160
2019-06-07T01:32:34.210Z,-157
2019-06-07T01:33:04.173Z,-159
2019-06-07T01:34:04.204Z,-159
2019-06-07T01:34:34.197Z,-159
2019-06-07T01:35:34.132Z,-158
2019-06-07T01:36:04.181Z,-160
2019-06-07T01:36:34.204Z,-160
2019-06-07T01:37:04.573Z,-162
2019-06-07T01:38:05.036Z,-160
2019-06-07T01:39:04.832Z,-157
2019-06-07T01:39:34.458Z,-160
2019-06-07T01:40:04.499Z,-160
2019-06-07T01:40:34.942Z,-158
2019-06-07T01:41:04.813Z,-160
2019-06-07T01:41:34.950Z,-160
2019-06-07T01:42:04.680Z,-162
2019-06-07T01:42:35.040Z,-162
2019-06-07T01:43:04.826Z,-160
2019-06-07T01:43:34.689Z,-160
2019-06-07T01:44:04.890Z,-161
2019-06-07T01:44:34.981Z,-158
2019-06-07T01:45:05.182Z,-162
2019-06-07T01:45:34.854Z,-159
2019-06-07T01:46:04.779Z,-159
2019-06-07T01:46:35.590Z,-159
2019-06-07T01:47:04.749Z,-159
2019-06-07T01:47:35.056Z,-159
2019-06-07T01:48:04.821Z,-159
2019-06-07T01:48:48.820Z,-158
2019-06-07T01:49:05.159Z,-161
2019-06-07T01:49:35.037Z,-158
2019-06-07T01:50:05.465Z,-159
2019-06-07T01:50:35.169Z,-159
2019-06-07T01:51:05.419Z,-158
2019-06-07T01:51:35.471Z,-162
2019-06-07T01:52:08.203Z,-159
2019-06-07T01:52:35.574Z,-159
2019-06-07T01:53:05.939Z,-158
2019-06-07T01:53:35.914Z,-158
2019-06-07T01:54:49.086Z,-158
2019-06-07T01:54:55.793Z,-158
2019-06-07T01:55:05.523Z,-158
2019-06-07T01:55:35.558Z,-159
2019-06-07T01:56:05.511Z,-159
2019-06-07T01:56:35.929Z,-158
2019-06-07T01:57:05.996Z,-160
2019-06-07T01:57:46.063Z,-159
2019-06-07T01:58:06.084Z,-159
2019-06-07T01:58:35.718Z,-157
2019-06-07T01:59:05.544Z,-158
2019-06-07T01:59:35.615Z,-158
2019-06-07T02:00:05.842Z,-158
2019-06-07T02:00:35.792Z,-158
2019-06-07T02:01:05.642Z,-156
2019-06-07T02:01:35.779Z,-158
2019-06-07T02:02:05.838Z,-158
2019-06-07T02:02:36.009Z,-157
2019-06-07T02:03:05.707Z,-158
2019-06-07T02:03:36.513Z,-158
2019-06-07T02:04:05.892Z,-157
2019-06-07T02:04:35.793Z,-158
2019-06-07T02:05:06.021Z,-159
2019-06-07T02:05:35.708Z,-159
2019-06-07T02:06:05.970Z,-160
2019-06-07T02:06:36.208Z,-158
2019-06-07T02:07:05.902Z,-156
2019-06-07T02:07:36.115Z,-158
2019-06-07T02:08:05.833Z,-158
2019-06-07T02:08:35.827Z,-158
2019-06-07T02:09:05.928Z,-158
2019-06-07T02:09:35.965Z,-158
2019-06-07T02:10:06.289Z,-157
2019-06-07T02:10:36.227Z,-157
2019-06-07T02:37:37.460Z,-152
2019-06-07T02:38:07.153Z,-155
2019-06-07T02:38:37.772Z,-153
2019-06-07T02:39:07.065Z,-152
2019-06-07T02:39:40.590Z,-152
2019-06-07T02:40:07.333Z,-152
2019-06-07T02:40:37.908Z,-154
2019-06-07T02:41:07.497Z,-153
2019-06-07T02:41:39.828Z,-153
2019-06-07T02:42:07.275Z,-151
2019-06-07T02:42:41.813Z,-151
2019-06-07T02:43:07.541Z,-152
2019-06-07T02:43:37.450Z,-152
2019-06-07T02:44:08.441Z,-153
2019-06-07T02:44:39.366Z,-153
2019-06-07T02:45:07.367Z,-153
2019-06-07T02:45:43.031Z,-153
2019-06-07T02:46:24.956Z,-153
2019-06-07T02:46:46.349Z,-152
2019-06-07T02:47:07.601Z,-152
2019-06-07T02:47:38.441Z,-152
2019-06-07T02:48:08.013Z,-152
2019-06-07T02:48:39.949Z,-153
2019-06-07T02:49:07.841Z,-154
2019-06-07T02:49:41.323Z,-154
2019-06-07T02:50:07.835Z,-153
2019-06-07T02:50:38.661Z,-153
2019-06-07T02:51:07.873Z,-153
2019-06-07T02:51:40.970Z,-153
2019-06-07T02:52:08.127Z,-154
2019-06-07T02:52:40.139Z,-154
2019-06-07T02:53:07.853Z,-152
2019-06-07T02:53:40.219Z,-151
2019-06-07T02:54:08.044Z,-151
2019-06-07T02:54:40.333Z,-151
2019-06-07T02:55:07.989Z,-153
2019-06-07T02:56:26.868Z,-153
2019-06-07T02:56:35.738Z,-150
2019-06-07T02:56:50.622Z,-150
2019-06-07T02:57:08.433Z,-152
2019-06-07T02:57:41.182Z,-151
2019-06-07T02:58:08.396Z,-151
2019-06-07T02:58:41.691Z,-151
2019-06-07T02:59:08.729Z,-150
2019-06-07T03:00:02.697Z,-150
2019-06-07T03:00:40.352Z,-151
2019-06-07T03:00:54.305Z,-150
2019-06-07T03:01:09.801Z,-152
2019-06-07T03:01:42.007Z,-152
2019-06-07T03:02:08.809Z,-150
2019-06-07T03:02:41.088Z,-150
2019-06-07T03:03:08.865Z,-149
2019-06-07T03:03:39.668Z,-150
2019-06-07T03:04:08.839Z,-152
2019-06-07T03:04:42.337Z,-152
2019-06-07T03:05:09.163Z,-151
2019-06-07T03:05:40.863Z,-151
2019-06-07T03:06:09.195Z,-149
2019-06-07T03:06:43.315Z,-150
2019-06-07T03:07:08.889Z,-152
2019-06-07T03:07:40.072Z,-150
2019-06-07T03:08:09.102Z,-150
2019-06-07T03:08:39.191Z,-152
2019-06-07T03:09:09.204Z,-149
2019-06-07T03:09:39.948Z,-148
2019-06-07T03:10:09.160Z,-153
2019-06-07T03:10:41.708Z,-152
2019-06-07T03:11:09.116Z,-151
2019-06-07T03:11:39.177Z,-149
2019-06-07T03:12:09.541Z,-149
2019-06-07T03:12:39.496Z,-150
2019-06-07T03:13:09.555Z,-148
2019-06-07T03:13:40.979Z,-150
2019-06-07T03:14:09.211Z,-150
2019-06-07T03:14:39.595Z,-150
2019-06-07T03:15:09.214Z,-150
2019-06-07T03:15:47.947Z,-150
2019-06-07T03:37:42.809Z,-134
2019-06-07T04:07:44.215Z,-70
2019-06-07T04:08:12.248Z,-63
2019-06-07T04:08:42.458Z,-62
2019-06-07T04:09:12.381Z,-125
2019-06-07T04:09:43.169Z,-104
2019-06-07T04:10:12.381Z,-80
2019-06-07T04:10:57.809Z,-64
2019-06-07T04:11:12.412Z,-64
2019-06-07T04:11:42.352Z,-62
2019-06-07T04:12:12.988Z,-63
2019-06-07T04:12:43.845Z,-60
2019-06-07T04:13:12.591Z,-60
2019-06-07T04:13:43.255Z,-60
2019-06-07T04:14:12.456Z,-54
2019-06-07T04:14:43.079Z,-57
2019-06-07T04:15:12.560Z,-58
2019-06-07T04:15:42.896Z,-58
2019-06-07T04:16:12.677Z,-58
2019-06-07T04:16:44.727Z,-71
2019-06-07T04:31:44.128Z,-51
2019-06-07T04:32:44.805Z,-27
2019-06-07T04:34:14.147Z,-8
2019-06-07T04:35:14.304Z,-10
2019-06-07T04:36:14.140Z,-17
2019-06-07T04:37:24.143Z,-18
2019-06-07T04:37:53.262Z,-19
2019-06-07T04:38:23.385Z,-13
2019-06-07T04:38:53.600Z,-12
2019-06-07T04:39:23.508Z,-9
2019-06-07T04:39:54.191Z,-9
2019-06-07T04:39:54.200Z,-8
2019-06-07T04:40:23.665Z,-10
2019-06-07T04:40:54.223Z,-29
2019-06-07T04:40:54.230Z,-33
2019-06-07T04:43:25.226Z,-135
2019-06-07T04:43:54.170Z,-108
2019-06-07T04:44:24.445Z,-58
2019-06-07T04:44:54.405Z,-51
2019-06-07T04:45:54.122Z,-45
2019-06-07T04:46:54.141Z,-34
2019-06-07T04:47:54.263Z,-32
2019-06-07T04:48:24.339Z,-42
2019-06-07T04:48:54.267Z,-42
2019-06-07T04:49:24.689Z,-44
2019-06-07T04:49:54.608Z,-43
2019-06-07T04:50:24.309Z,-43
2019-06-07T04:50:54.465Z,-41
2019-06-07T04:51:24.403Z,-42
2019-06-07T04:51:54.516Z,-43
2019-06-07T04:52:24.889Z,-46
2019-06-07T04:52:54.727Z,-45
2019-06-07T04:53:25.095Z,-50
2019-06-07T04:53:55.260Z,-52
2019-06-07T04:54:25.430Z,-56
2019-06-07T04:54:55.221Z,-56
2019-06-07T04:55:24.922Z,-60
2019-06-07T04:55:55.099Z,-54
2019-06-07T04:56:24.958Z,-68
2019-06-07T04:56:55.057Z,-71
2019-06-07T04:57:25.341Z,-63
2019-06-07T04:57:55.380Z,-57
2019-06-07T04:58:25.332Z,-60
2019-06-07T04:58:55.077Z,-59
2019-06-07T05:00:03.961Z,-59
2019-06-07T05:00:11.668Z,-146
2019-06-07T05:00:47.163Z,-143
2019-06-07T05:01:02.503Z,-90
2019-06-07T05:01:27.095Z,-68
2019-06-07T05:01:55.689Z,-57
2019-06-07T05:02:25.536Z,-53
2019-06-07T05:02:55.448Z,-53
2019-06-07T05:03:25.570Z,-53
2019-06-07T05:03:55.767Z,-51
2019-06-07T05:04:25.426Z,-42
2019-06-07T05:04:55.407Z,-41
2019-06-07T05:05:25.695Z,-37
2019-06-07T05:05:55.592Z,-39
2019-06-07T05:06:25.766Z,-33
2019-06-07T05:06:55.575Z,-31
2019-06-07T05:07:26.557Z,-27
2019-06-07T05:07:55.606Z,-27
2019-06-07T05:08:28.295Z,-27
2019-06-07T05:08:55.785Z,-25
2019-06-07T05:09:25.991Z,-21
2019-06-07T05:09:56.389Z,-18
2019-06-07T05:10:26.110Z,-15
2019-06-07T05:10:57.056Z,-29
2019-06-07T05:11:26.183Z,-24
2019-06-07T05:11:56.222Z,-19
2019-06-07T05:12:28.212Z,-13
2019-06-07T05:12:56.088Z,-11
2019-06-07T05:13:26.493Z,-1
2019-06-07T05:13:56.419Z,3
2019-06-07T05:14:26.776Z,1
2019-06-07T05:14:56.681Z,11
2019-06-07T05:15:26.293Z,19
2019-06-07T05:15:56.444Z,25
2019-06-07T05:16:26.651Z,23
2019-06-07T05:16:56.449Z,-133
2019-06-07T05:17:26.980Z,-82
2019-06-07T05:17:57.109Z,-84
2019-06-07T05:18:26.796Z,-26
2019-06-07T05:18:56.974Z,63
2019-06-07T05:19:26.865Z,67
2019-06-07T05:19:56.782Z,65
2019-06-07T05:20:26.816Z,76
2019-06-07T05:20:56.758Z,90
2019-06-07T05:21:46.400Z,88
2019-06-07T05:22:03.978Z,96
2019-06-07T05:22:26.876Z,112
2019-06-07T05:22:56.992Z,121
2019-06-07T05:24:02.276Z,124
2019-06-07T05:24:06.231Z,132
2019-06-07T05:24:27.057Z,138
2019-06-07T05:37:27.784Z,159
2019-06-07T05:37:57.890Z,152
2019-06-07T05:38:27.581Z,139
2019-06-07T05:38:57.637Z,137
2019-06-07T05:39:28.159Z,143
2019-06-07T05:39:57.795Z,141
2019-06-07T05:40:28.391Z,137
2019-06-07T05:40:58.033Z,133
2019-06-07T05:41:28.299Z,131
2019-06-07T05:41:58.367Z,132
2019-06-07T05:42:28.327Z,134
2019-06-07T05:42:59.288Z,134
2019-06-07T05:43:28.675Z,132
2019-06-07T05:44:11.963Z,131
2019-06-07T05:44:28.644Z,128
2019-06-07T05:44:58.271Z,127
2019-06-07T05:45:28.893Z,124
2019-06-07T05:45:58.703Z,122
2019-06-07T05:46:28.562Z,116
2019-06-07T05:46:59.473Z,105
2019-06-07T05:47:28.644Z,105
2019-06-07T05:47:58.615Z,94
2019-06-07T05:48:28.873Z,94
2019-06-07T05:48:58.831Z,90
2019-06-07T05:49:29.776Z,89
2019-06-07T05:49:58.860Z,86
2019-06-07T05:50:41.273Z,87
2019-06-07T05:50:59.263Z,92
2019-06-07T05:51:28.842Z,91
2019-06-07T05:51:59.266Z,113
2019-06-07T05:52:28.898Z,130
2019-06-07T05:52:58.803Z,142
2019-06-07T05:53:29.258Z,155
2019-06-07T05:53:58.951Z,163
2019-06-07T05:54:29.424Z,169
2019-06-07T05:54:58.977Z,170
2019-06-07T05:55:29.034Z,166
2019-06-07T05:55:59.637Z,167
2019-06-07T05:56:29.241Z,167
2019-06-07T05:56:59.217Z,165
2019-06-07T05:57:29.201Z,165
2019-06-07T05:57:59.047Z,164
2019-06-07T05:58:29.210Z,161
2019-06-07T05:58:59.284Z,161
2019-06-07T05:59:29.516Z,160
2019-06-07T05:59:59.695Z,161
2019-06-07T06:00:29.453Z,158
2019-06-07T06:01:37.043Z,158
2019-06-07T06:01:43.490Z,156
2019-06-07T06:02:04.111Z,157
2019-06-07T06:02:32.987Z,155
2019-06-07T06:03:05.170Z,153
2019-06-07T06:03:30.150Z,155
2019-06-07T06:04:00.014Z,152
2019-06-07T06:04:29.763Z,153
2019-06-07T06:05:00.038Z,152
2019-06-07T06:05:34.100Z,145
2019-06-07T06:05:59.678Z,144
2019-06-07T06:12:59.928Z,124
2019-06-07T06:13:30.840Z,122
2019-06-07T06:14:07.222Z,128
2019-06-07T06:14:30.063Z,126
2019-06-07T06:15:00.286Z,100
2019-06-07T06:15:42.020Z,122
2019-06-07T06:16:02.284Z,78
2019-06-07T06:16:30.319Z,101
2019-06-07T06:17:01.535Z,34
2019-06-07T06:37:31.682Z,108
2019-06-07T06:38:02.135Z,96
2019-06-07T06:38:31.573Z,92
2019-06-07T06:39:01.630Z,103
2019-06-07T06:39:32.264Z,72
2019-06-07T06:40:01.688Z,88
2019-06-07T06:40:32.563Z,92
2019-06-07T06:41:15.000Z,90
2019-06-07T06:41:46.039Z,92
2019-06-07T06:42:03.891Z,97
2019-06-07T06:42:31.836Z,101
2019-06-07T06:43:01.988Z,80
2019-06-07T06:43:31.912Z,91
2019-06-07T06:44:01.920Z,90
2019-06-07T06:44:32.011Z,83
2019-06-07T06:45:02.516Z,61
2019-06-07T06:45:32.056Z,70
2019-06-07T06:46:02.411Z,94
2019-06-07T06:46:38.470Z,112
2019-06-07T06:47:02.585Z,92
2019-06-07T06:47:32.337Z,91
2019-06-07T06:48:02.653Z,88
2019-06-07T06:48:32.420Z,91
2019-06-07T06:49:02.619Z,84
2019-06-07T06:49:32.339Z,79
2019-06-07T06:50:02.523Z,86
2019-06-07T06:50:32.849Z,105
2019-06-07T06:51:02.887Z,80
2019-06-07T07:29:36.026Z,64
2019-06-07T07:34:31.702Z,16
2019-06-07T07:34:37.296Z,79
2019-06-07T07:37:05.809Z,72
2019-06-07T07:37:36.004Z,73
2019-06-07T07:38:06.107Z,63
2019-06-07T07:38:36.648Z,73
2019-06-07T07:39:06.588Z,57
2019-06-07T07:39:35.998Z,52
2019-06-07T07:40:47.999Z,74
2019-06-07T07:40:56.717Z,90
2019-06-07T07:41:14.369Z,70
2019-06-07T07:41:36.202Z,58
2019-06-07T07:42:18.568Z,59
2019-06-07T07:42:38.412Z,57
2019-06-07T07:43:06.249Z,62
2019-06-07T07:43:36.792Z,72
2019-06-07T07:44:07.417Z,67
2019-06-07T07:44:36.252Z,68
2019-06-07T07:45:06.573Z,74
2019-06-07T07:45:36.493Z,65
2019-06-07T07:46:28.276Z,52
2019-06-07T07:46:37.104Z,64
2019-06-07T07:47:07.018Z,54
2019-06-07T07:47:55.939Z,92
2019-06-07T07:48:14.572Z,82
2019-06-07T07:48:37.086Z,75
2019-06-07T07:49:07.423Z,75
2019-06-07T07:49:37.732Z,93
2019-06-07T07:50:07.980Z,75
2019-06-07T07:50:38.386Z,62
2019-06-07T07:51:07.853Z,63
2019-06-07T07:51:37.636Z,68
2019-06-07T07:52:07.657Z,66
2019-06-07T07:52:37.770Z,80
2019-06-07T07:53:07.737Z,75
2019-06-07T07:53:49.136Z,80
2019-06-07T07:54:10.412Z,79
2019-06-07T07:54:38.060Z,79
2019-06-07T07:55:08.235Z,72
2019-06-07T07:55:37.926Z,73
2019-06-07T07:56:08.750Z,72
2019-06-07T07:56:38.152Z,75
2019-06-07T07:57:08.120Z,68
2019-06-07T07:57:38.648Z,74
2019-06-07T07:58:08.178Z,92
2019-06-07T07:58:38.344Z,66
2019-06-07T07:59:08.997Z,44
2019-06-07T07:59:42.075Z,90
2019-06-07T08:00:48.451Z,75
2019-06-07T08:00:49.955Z,76
2019-06-07T08:01:10.514Z,65
2019-06-07T08:01:38.926Z,72
2019-06-07T08:02:08.558Z,70
2019-06-07T08:02:38.557Z,63
2019-06-07T08:03:09.396Z,65
2019-06-07T08:03:38.694Z,60
2019-06-07T08:04:09.248Z,63
2019-06-07T08:05:13.384Z,27
2019-06-07T08:05:22.397Z,72
2019-06-07T08:05:42.264Z,69
2019-06-07T08:06:08.830Z,72
2019-06-07T08:06:38.827Z,62
2019-06-07T08:07:09.222Z,59
2019-06-07T08:25:40.013Z,74
2019-06-07T08:27:25.072Z,64
2019-06-07T08:27:40.194Z,63
2019-06-07T08:28:10.106Z,73
2019-06-07T08:28:40.090Z,73
2019-06-07T08:29:10.416Z,68
2019-06-07T08:29:45.174Z,70
2019-06-07T08:30:46.269Z,73
2019-06-07T08:30:50.452Z,73
2019-06-07T08:31:10.330Z,73
2019-06-07T08:31:40.968Z,73
2019-06-07T08:32:10.335Z,68
2019-06-07T08:32:40.753Z,54
2019-06-07T08:33:25.160Z,50
2019-06-07T08:33:40.658Z,0
2019-06-07T08:34:10.855Z,76
2019-06-07T08:34:41.096Z,68
2019-06-07T08:35:10.876Z,72
2019-06-07T08:36:04.155Z,74
2019-06-07T08:36:19.749Z,69
2019-06-07T08:36:42.199Z,73
2019-06-07T08:37:11.129Z,76
2019-06-07T08:38:14.566Z,70
2019-06-07T08:38:25.698Z,72
2019-06-07T08:38:47.797Z,72
2019-06-07T08:39:11.200Z,69
2019-06-07T08:39:42.038Z,69
2019-06-07T08:40:11.659Z,74
2019-06-07T08:40:41.379Z,63
2019-06-07T08:41:12.869Z,-131
2019-06-07T08:41:53.694Z,77
2019-06-07T08:42:15.785Z,80
2019-06-07T08:42:59.698Z,80
2019-06-07T08:43:20.190Z,-49
2019-06-07T08:43:41.780Z,53
2019-06-07T08:44:23.134Z,186
2019-06-07T08:44:41.589Z,186
2019-06-07T08:45:12.004Z,102
2019-06-07T08:45:42.110Z,98
2019-06-07T08:46:11.982Z,85
2019-06-07T08:46:42.715Z,134
2019-06-07T08:47:19.668Z,73
2019-06-07T08:47:42.074Z,73
2019-06-07T08:48:26.903Z,68
2019-06-07T08:48:42.177Z,72
2019-06-07T08:49:12.448Z,65
2019-06-07T08:49:42.111Z,105
2019-06-07T08:50:12.088Z,64
2019-06-07T08:50:42.252Z,23
2019-06-07T08:51:12.401Z,53
2019-06-07T08:51:42.672Z,56
2019-06-07T08:52:12.661Z,63
2019-06-07T08:52:42.455Z,33
2019-06-07T08:53:12.696Z,69
2019-06-07T08:53:42.563Z,95
2019-06-07T08:54:22.095Z,108
2019-06-07T08:54:42.914Z,76
2019-06-07T08:55:13.014Z,56
2019-06-07T08:55:43.138Z,75
2019-06-07T08:56:13.021Z,78
2019-06-07T08:56:43.460Z,87
2019-06-07T08:57:20.996Z,61
2019-06-07T08:57:43.122Z,70
2019-06-07T08:58:13.042Z,51
2019-06-07T08:58:43.216Z,52
2019-06-07T08:59:13.158Z,56
2019-06-07T08:59:43.369Z,60
2019-06-07T09:00:41.781Z,66
2019-06-07T09:00:46.807Z,67
2019-06-07T09:01:13.708Z,69
2019-06-07T09:01:43.835Z,60
2019-06-07T09:02:23.181Z,62
2019-06-07T09:02:43.383Z,39
2019-06-07T09:03:13.317Z,62
2019-06-07T09:03:43.423Z,43
2019-06-07T09:04:13.783Z,69
2019-06-07T09:04:43.615Z,50
2019-06-07T09:05:13.895Z,47
2019-06-07T09:05:43.828Z,73
2019-06-07T09:06:41.500Z,77
2019-06-07T09:07:04.678Z,36
2019-06-07T09:07:21.628Z,54
2019-06-07T09:14:15.818Z,26
2019-06-07T09:18:41.784Z,-47
2019-06-07T09:20:45.933Z,96
2019-06-07T09:22:16.223Z,53
2019-06-07T09:23:18.147Z,26
2019-06-07T09:25:20.847Z,54
2019-06-07T09:25:57.037Z,67
2019-06-07T09:26:18.028Z,55
2019-06-07T09:26:45.958Z,59
2019-06-07T09:27:15.773Z,69
2019-06-07T09:27:45.827Z,74
2019-06-07T09:28:19.974Z,70
2019-06-07T09:28:46.360Z,65
2019-06-07T09:29:16.003Z,62
2019-06-07T09:29:46.211Z,53
2019-06-07T09:30:18.469Z,73
2019-06-07T09:30:46.641Z,56
2019-06-07T09:31:16.621Z,71
2019-06-07T09:31:53.062Z,60
2019-06-07T09:32:18.576Z,42
2019-06-07T09:32:46.571Z,80
2019-06-07T09:33:16.739Z,78
2019-06-07T09:33:46.682Z,43
2019-06-07T09:34:16.669Z,53
2019-06-07T09:34:47.097Z,55
2019-06-07T09:35:17.373Z,60
2019-06-07T09:35:47.073Z,52
2019-06-07T09:36:17.205Z,68
2019-06-07T09:36:46.954Z,57
2019-06-07T09:38:06.293Z,77
2019-06-07T09:38:25.362Z,89
2019-06-07T09:38:49.545Z,81
2019-06-07T09:39:19.946Z,84
2019-06-07T09:39:49.970Z,59
2019-06-07T09:40:25.418Z,62
2019-06-07T09:40:49.593Z,68
2019-06-07T09:41:19.614Z,68
2019-06-07T09:41:50.254Z,84
2019-06-07T09:42:19.972Z,86
2019-06-07T09:43:30.971Z,35
2019-06-07T09:43:59.440Z,78
2019-06-07T09:44:06.593Z,64
2019-06-07T09:44:25.383Z,53
2019-06-07T09:44:49.957Z,60
2019-06-07T09:45:19.894Z,63
2019-06-07T09:45:49.876Z,54
2019-06-07T09:46:19.871Z,60
2019-06-07T09:47:10.110Z,61
2019-06-07T09:47:31.619Z,63
2019-06-07T09:47:50.094Z,70
2019-06-07T09:49:01.193Z,64
2019-06-07T09:49:12.849Z,67
2019-06-07T10:07:31.529Z,78
2019-06-07T10:10:58.213Z,38
2019-06-07T10:11:26.876Z,57
2019-06-07T10:11:58.083Z,66
2019-06-07T10:12:27.329Z,43
2019-06-07T10:12:56.887Z,54
2019-06-07T10:13:27.175Z,60
2019-06-07T10:14:27.486Z,59
2019-06-07T10:15:28.169Z,61
2019-06-07T10:15:58.495Z,69
2019-06-07T10:16:27.397Z,50
2019-06-07T10:16:57.064Z,75
2019-06-07T10:17:27.251Z,63
2019-06-07T10:17:57.186Z,68
2019-06-07T10:18:27.437Z,64
2019-06-07T10:18:59.092Z,58
2019-06-07T10:19:27.337Z,58
2019-06-07T10:19:57.392Z,65
2019-06-07T10:20:27.570Z,69
2019-06-07T10:20:57.580Z,65
2019-06-07T10:21:27.679Z,58
2019-06-07T10:21:59.098Z,66
2019-06-07T10:22:27.524Z,60
2019-06-07T10:22:59.119Z,61
2019-06-07T10:23:28.037Z,62
2019-06-07T10:23:59.181Z,53
2019-06-07T10:24:27.980Z,55
2019-06-07T10:24:59.576Z,61
2019-06-07T10:25:28.105Z,55
2019-06-07T10:25:57.969Z,79
2019-06-07T10:26:28.014Z,54
2019-06-07T10:26:57.821Z,46
2019-06-07T10:27:28.190Z,28
2019-06-07T10:27:59.957Z,62
2019-06-07T10:28:28.633Z,56
2019-06-07T10:28:58.148Z,64
2019-06-07T10:29:28.022Z,62
2019-06-07T10:29:58.202Z,59
2019-06-07T10:30:28.194Z,58
2019-06-07T10:30:58.039Z,68
2019-06-07T10:31:28.091Z,62
2019-06-07T10:31:58.226Z,53
2019-06-07T10:32:28.528Z,92
2019-06-07T10:32:59.654Z,61
2019-06-07T10:33:28.882Z,60
2019-06-07T10:33:58.307Z,63
2019-06-07T10:34:28.266Z,55
2019-06-07T10:34:58.626Z,53
2019-06-07T10:35:28.375Z,60
2019-06-07T10:35:58.680Z,57
2019-06-07T10:36:28.564Z,73
2019-06-07T10:36:58.435Z,73
2019-06-07T10:37:28.548Z,109
2019-06-07T10:38:00.297Z,55
2019-06-07T10:38:28.500Z,59
2019-06-07T10:38:58.514Z,60
2019-06-07T10:39:28.508Z,59
2019-06-07T10:39:58.631Z,60
2019-06-07T10:40:28.870Z,56
2019-06-07T10:40:59.078Z,63
2019-06-07T10:41:28.764Z,64
2019-06-07T10:41:58.799Z,59
2019-06-07T10:42:28.766Z,65
2019-06-07T10:42:58.982Z,59
2019-06-07T10:43:28.805Z,59
2019-06-07T10:43:58.855Z,57
2019-06-07T10:44:29.594Z,60
2019-06-07T10:44:59.069Z,62
2019-06-07T10:45:28.979Z,66
2019-06-07T10:45:59.559Z,52
2019-06-07T10:46:29.161Z,57
2019-06-07T10:46:59.317Z,59
2019-06-07T10:47:29.080Z,64
2019-06-07T10:47:59.182Z,54
2019-06-07T10:48:29.487Z,61
2019-06-07T10:48:59.319Z,52
2019-06-07T10:49:29.916Z,53
2019-06-07T10:49:59.761Z,56
2019-06-07T10:50:29.927Z,55
2019-06-07T10:50:59.438Z,55
2019-06-07T10:51:29.559Z,58
2019-06-07T10:52:02.834Z,70
2019-06-07T10:52:29.567Z,73
2019-06-07T10:52:59.865Z,61
2019-06-07T10:53:29.527Z,63
2019-06-07T10:53:59.609Z,55
2019-06-07T10:54:30.747Z,53
2019-06-07T10:54:59.851Z,67
2019-06-07T10:55:29.991Z,50
2019-06-07T10:55:59.752Z,55
2019-06-07T10:56:29.734Z,61
2019-06-07T10:57:00.225Z,59
2019-06-07T10:57:29.994Z,61
2019-06-07T10:57:59.882Z,58
2019-06-07T10:58:29.975Z,59
2019-06-07T10:59:00.013Z,60
2019-06-07T10:59:30.472Z,53
2019-06-07T11:00:00.382Z,66
2019-06-07T11:00:30.554Z,59
2019-06-07T11:01:00.775Z,62
2019-06-07T11:01:30.187Z,61
2019-06-07T11:02:00.483Z,60
2019-06-07T11:02:30.675Z,63
2019-06-07T11:03:01.142Z,60
2019-06-07T11:03:31.025Z,57
2019-06-07T11:04:01.135Z,62
2019-06-07T11:04:31.304Z,52
2019-06-07T11:05:00.823Z,68
2019-06-07T11:05:31.451Z,59
2019-06-07T11:06:00.973Z,60
2019-06-07T11:06:30.954Z,58
2019-06-07T11:07:01.284Z,55
2019-06-07T11:07:31.897Z,51
2019-06-07T11:07:31.907Z,51
2019-06-07T11:08:01.076Z,54
2019-06-07T11:08:31.078Z,64
2019-06-07T11:09:01.378Z,68
2019-06-07T11:09:31.402Z,53
2019-06-07T11:10:06.830Z,66
2019-06-07T11:10:31.318Z,58
2019-06-07T11:11:01.268Z,57
2019-06-07T11:11:31.943Z,62
2019-06-07T11:12:01.561Z,56
2019-06-07T11:12:31.681Z,56
2019-06-07T11:13:01.776Z,64
2019-06-07T11:37:33.468Z,64
2019-06-07T12:07:35.387Z,59
2019-06-07T12:08:05.047Z,59
2019-06-07T12:08:35.159Z,59
2019-06-07T12:09:05.156Z,60
2019-06-07T12:09:35.051Z,66
2019-06-07T12:10:05.451Z,61
2019-06-07T12:10:42.298Z,62
2019-06-07T12:11:05.686Z,59
2019-06-07T12:11:35.589Z,60
2019-06-07T12:12:05.738Z,62
2019-06-07T12:12:35.893Z,59
2019-06-07T12:14:05.887Z,61
2019-06-07T12:14:36.032Z,52
2019-06-07T12:15:06.374Z,58
2019-06-07T12:15:35.943Z,56
2019-06-07T12:16:05.832Z,59
2019-06-07T12:16:35.984Z,52
2019-06-07T12:17:05.888Z,58
2019-06-07T12:17:35.817Z,64
2019-06-07T12:18:05.788Z,62
2019-06-07T12:18:35.785Z,61
2019-06-07T12:19:06.018Z,58
2019-06-07T12:19:35.859Z,57
2019-06-07T12:20:08.687Z,117
2019-06-07T12:20:36.189Z,61
2019-06-07T12:21:06.224Z,57
2019-06-07T12:21:36.202Z,58
2019-06-07T12:22:06.131Z,61
2019-06-07T12:22:36.319Z,60
2019-06-07T12:23:06.213Z,58
2019-06-07T12:23:36.313Z,53
2019-06-07T12:24:06.125Z,59
2019-06-07T12:24:36.452Z,63
2019-06-07T12:25:06.420Z,61
2019-06-07T12:25:36.443Z,54
2019-06-07T12:26:06.314Z,47
2019-06-07T12:26:36.392Z,64
2019-06-07T12:27:06.381Z,64
2019-06-07T12:27:36.258Z,61
2019-06-07T12:28:06.693Z,55
2019-06-07T12:28:36.681Z,60
2019-06-07T12:29:06.475Z,59
2019-06-07T12:29:36.557Z,63
2019-06-07T12:30:09.937Z,64
2019-06-07T12:30:36.663Z,82
2019-06-07T12:31:06.363Z,58
2019-06-07T12:31:36.423Z,59